createdAt,value
2022-10-22T00:00:12.459Z,99.90
2022-10-22T00:02:39.416Z,99.90
2022-10-22T00:05:06.576Z,99.90
2022-10-22T00:07:33.494Z,99.90
2022-10-22T00:10:00.325Z,99.90
2022-10-22T00:12:27.189Z,99.90
2022-10-22T00:14:54.037Z,99.90
2022-10-22T00:17:20.844Z,99.90
2022-10-22T00:19:47.702Z,99.90
2022-10-22T00:22:14.561Z,99.90
2022-10-22T00:24:41.535Z,99.90
2022-10-22T00:27:14.191Z,99.90
2022-10-22T00:29:41.073Z,99.90
2022-10-22T00:32:07.952Z,99.90
2022-10-22T00:34:34.769Z,99.90
2022-10-22T00:37:01.585Z,99.90
2022-10-22T00:39:28.561Z,99.90
2022-10-22T00:41:55.892Z,99.90
2022-10-22T00:45:00.097Z,99.90
2022-10-22T00:47:28.527Z,99.90
2022-10-22T00:49:55.366Z,99.90
2022-10-22T00:52:22.240Z,99.90
2022-10-22T00:54:49.121Z,99.90
2022-10-22T00:57:16.927Z,99.90
2022-10-22T00:59:43.748Z,99.90
2022-10-22T01:02:10.571Z,99.90
2022-10-22T01:04:37.449Z,99.90
2022-10-22T01:07:04.277Z,99.90
2022-10-22T01:09:47.077Z,99.90
2022-10-22T01:12:39.753Z,99.90
2022-10-22T01:15:59.008Z,99.90
2022-10-22T01:18:45.964Z,99.90
2022-10-22T01:21:18.965Z,99.90
2022-10-22T01:24:23.029Z,99.90
2022-10-22T01:26:58.566Z,99.90
2022-10-22T01:29:37.447Z,99.90
2022-10-22T01:32:12.966Z,99.90
2022-10-22T01:34:40.643Z,99.90
2022-10-22T01:37:07.576Z,99.90
2022-10-22T01:39:34.443Z,99.90
2022-10-22T01:42:01.290Z,99.90
2022-10-22T01:44:32.719Z,99.90
2022-10-22T01:47:11.474Z,99.90
2022-10-22T01:49:41.784Z,99.90
2022-10-22T01:52:34.607Z,99.90
2022-10-22T01:55:16.534Z,99.90
2022-10-22T01:58:34.258Z,99.90
2022-10-22T02:01:09.281Z,99.90
2022-10-22T02:03:41.056Z,99.90
2022-10-22T02:06:11.285Z,99.90
2022-10-22T02:08:38.171Z,99.90
2022-10-22T02:11:05.106Z,99.90
2022-10-22T02:13:36.490Z,99.90
2022-10-22T02:16:04.694Z,99.90
2022-10-22T02:18:31.650Z,99.90
2022-10-22T02:20:58.965Z,99.90
2022-10-22T02:23:25.841Z,99.90
2022-10-22T02:26:02.239Z,99.90
2022-10-22T02:28:39.671Z,99.90
2022-10-22T02:31:13.642Z,99.90
2022-10-22T02:33:44.087Z,99.90
2022-10-22T02:36:10.931Z,99.90
2022-10-22T02:38:37.744Z,99.90
2022-10-22T02:41:04.586Z,99.90
2022-10-22T02:43:31.393Z,99.90
2022-10-22T02:45:58.235Z,99.90
2022-10-22T02:48:25.058Z,99.90
2022-10-22T02:50:51.937Z,99.90
2022-10-22T02:53:18.749Z,99.90
2022-10-22T02:55:45.564Z,99.90
2022-10-22T02:58:14.049Z,99.90
2022-10-22T03:00:40.946Z,99.90
2022-10-22T03:03:07.819Z,99.90
2022-10-22T03:05:34.617Z,99.90
2022-10-22T03:08:01.451Z,99.90
2022-10-22T03:10:28.304Z,99.90
2022-10-22T03:12:55.159Z,99.90
2022-10-22T03:15:22.104Z,99.90
2022-10-22T03:17:48.914Z,99.90
2022-10-22T03:20:15.802Z,99.90
2022-10-22T03:22:42.972Z,99.90
2022-10-22T03:25:12.250Z,99.90
2022-10-22T03:27:39.377Z,99.90
2022-10-22T03:30:07.278Z,99.90
2022-10-22T03:32:34.103Z,99.90
2022-10-22T03:37:32.911Z,99.90
2022-10-22T03:39:59.747Z,99.90
2022-10-22T03:42:26.575Z,99.90
2022-10-22T03:44:53.433Z,99.90
2022-10-22T03:47:20.282Z,99.90
2022-10-22T03:49:47.075Z,99.90
2022-10-22T03:52:14.512Z,99.90
2022-10-22T03:54:42.389Z,99.90
2022-10-22T03:57:09.692Z,99.90
2022-10-22T03:59:41.105Z,99.90
2022-10-22T04:02:08.140Z,99.90
2022-10-22T04:04:35.749Z,99.90
2022-10-22T04:07:02.663Z,99.90
2022-10-22T04:09:32.612Z,99.90
2022-10-22T04:11:59.965Z,99.90
2022-10-22T04:14:26.842Z,99.90
2022-10-22T04:16:53.774Z,99.90
2022-10-22T04:19:20.621Z,99.90
2022-10-22T04:21:47.422Z,99.90
2022-10-22T04:24:14.610Z,99.90
2022-10-22T04:26:41.569Z,99.90
2022-10-22T04:29:11.859Z,99.90
2022-10-22T04:31:42.010Z,99.90
2022-10-22T04:34:08.823Z,99.90
2022-10-22T04:36:35.624Z,99.90
2022-10-22T04:39:03.037Z,99.90
2022-10-22T04:41:34.966Z,99.90
2022-10-22T04:44:01.896Z,99.90
2022-10-22T04:46:30.142Z,99.90
2022-10-22T04:48:56.943Z,99.90
2022-10-22T04:51:25.171Z,99.90
2022-10-22T04:53:52.098Z,99.90
2022-10-22T04:56:20.805Z,99.90
2022-10-22T04:59:07.095Z,99.90
2022-10-22T05:01:42.601Z,99.90
2022-10-22T05:04:12.257Z,99.90
2022-10-22T05:06:39.214Z,99.90
2022-10-22T05:09:08.485Z,99.90
2022-10-22T05:11:36.784Z,99.90
2022-10-22T05:14:04.835Z,99.90
2022-10-22T05:16:32.152Z,99.90
2022-10-22T05:18:59.934Z,99.90
2022-10-22T05:21:26.906Z,99.90
2022-10-22T05:23:54.914Z,99.90
2022-10-22T05:26:22.380Z,99.90
2022-10-22T05:28:49.721Z,99.90
2022-10-22T05:31:16.869Z,99.90
2022-10-22T05:33:43.884Z,99.90
2022-10-22T05:36:16.049Z,99.90
2022-10-22T05:38:42.881Z,99.90
2022-10-22T05:41:11.431Z,99.90
2022-10-22T05:43:38.458Z,99.90
2022-10-22T05:46:10.086Z,99.90
2022-10-22T05:48:37.005Z,99.90
2022-10-22T05:51:11.205Z,99.90
2022-10-22T05:53:39.435Z,99.90
2022-10-22T05:56:08.015Z,99.90
2022-10-22T05:58:35.004Z,99.90
2022-10-22T06:01:05.562Z,99.90
2022-10-22T06:03:32.537Z,99.90
2022-10-22T06:06:03.406Z,99.90
2022-10-22T06:08:30.139Z,99.90
2022-10-22T06:10:56.945Z,99.90
2022-10-22T06:13:23.797Z,99.90
2022-10-22T06:15:52.795Z,99.90
2022-10-22T06:18:20.056Z,99.90
2022-10-22T06:20:47.743Z,99.90
2022-10-22T06:23:15.405Z,99.90
2022-10-22T06:25:42.750Z,99.90
2022-10-22T06:28:09.905Z,99.90
2022-10-22T06:30:41.829Z,99.90
2022-10-22T06:33:11.203Z,99.90
2022-10-22T06:35:38.021Z,99.90
2022-10-22T06:38:05.502Z,99.10
2022-10-22T06:40:33.315Z,99.10
2022-10-22T06:43:00.484Z,96.80
2022-10-22T06:45:27.324Z,96.00
2022-10-22T06:47:55.614Z,95.70
2022-10-22T06:50:22.479Z,94.20
2022-10-22T06:52:49.344Z,93.60
2022-10-22T06:55:16.203Z,93.60
2022-10-22T06:57:43.544Z,93.40
2022-10-22T07:00:10.961Z,92.30
2022-10-22T07:02:38.068Z,92.40
2022-10-22T07:05:05.486Z,90.70
2022-10-22T07:07:32.319Z,91.40
2022-10-22T07:09:59.131Z,84.70
2022-10-22T07:12:26.144Z,75.80
2022-10-22T07:14:52.947Z,69.00
2022-10-22T07:17:19.748Z,64.20
2022-10-22T07:19:49.689Z,60.80
2022-10-22T07:22:18.193Z,58.00
2022-10-22T07:24:44.978Z,58.20
2022-10-22T07:27:11.910Z,61.00
2022-10-22T07:29:38.783Z,61.30
2022-10-22T07:32:05.693Z,62.20
2022-10-22T07:34:32.522Z,63.00
2022-10-22T07:36:59.464Z,63.20
2022-10-22T07:39:26.292Z,63.40
2022-10-22T07:41:53.350Z,64.20
2022-10-22T07:44:20.199Z,65.40
2022-10-22T07:46:48.916Z,65.90
2022-10-22T07:49:15.953Z,65.00
2022-10-22T07:51:42.808Z,66.20
2022-10-22T07:54:09.644Z,67.50
2022-10-22T07:56:36.466Z,67.60
2022-10-22T07:59:03.306Z,61.30
2022-10-22T08:01:30.153Z,60.20
2022-10-22T08:03:56.997Z,57.80
2022-10-22T08:06:23.838Z,56.60
2022-10-22T08:08:51.023Z,53.60
2022-10-22T08:11:17.900Z,50.80
2022-10-22T08:13:45.807Z,50.60
2022-10-22T08:16:13.076Z,50.50
2022-10-22T08:18:40.003Z,51.80
2022-10-22T08:21:07.168Z,54.10
2022-10-22T08:23:34.557Z,53.40
2022-10-22T08:26:03.061Z,51.10
2022-10-22T08:28:31.314Z,48.20
2022-10-22T08:30:58.232Z,46.80
2022-10-22T08:33:25.092Z,47.20
2022-10-22T08:35:52.107Z,46.50
2022-10-22T08:38:19.102Z,48.10
2022-10-22T08:43:32.914Z,46.50
2022-10-22T08:46:26.310Z,46.20
2022-10-22T08:48:57.965Z,46.40
2022-10-22T08:51:30.406Z,46.60
2022-10-22T08:54:08.024Z,46.50
2022-10-22T08:56:36.249Z,46.60
2022-10-22T08:59:11.960Z,47.50
2022-10-22T09:01:39.958Z,48.40
2022-10-22T09:04:27.820Z,49.00
2022-10-22T09:06:54.752Z,49.90
2022-10-22T09:09:21.714Z,49.60
2022-10-22T09:11:50.341Z,50.10
2022-10-22T09:14:20.066Z,48.70
2022-10-22T09:17:05.022Z,48.00
2022-10-22T09:19:54.411Z,45.60
2022-10-22T09:22:30.065Z,45.70
2022-10-22T09:25:21.355Z,45.50
2022-10-22T09:27:48.906Z,44.40
2022-10-22T09:30:20.855Z,45.20
2022-10-22T09:32:52.221Z,46.40
2022-10-22T09:35:21.601Z,47.50
2022-10-22T09:37:50.568Z,48.50
2022-10-22T09:40:17.776Z,49.40
2022-10-22T09:42:46.463Z,50.40
2022-10-22T09:45:21.460Z,51.00
2022-10-22T09:48:01.495Z,52.30
2022-10-22T09:50:50.260Z,51.50
2022-10-22T09:53:20.978Z,49.70
2022-10-22T09:55:59.149Z,50.10
2022-10-22T09:58:26.168Z,49.60
2022-10-22T10:01:00.256Z,50.00
2022-10-22T10:03:28.670Z,49.90
2022-10-22T10:06:03.070Z,49.10
2022-10-22T10:08:32.849Z,49.60
2022-10-22T10:11:14.727Z,50.50
2022-10-22T10:13:56.670Z,50.80
2022-10-22T10:16:57.410Z,50.20
2022-10-22T10:19:38.603Z,50.40
2022-10-22T10:22:34.216Z,50.80
2022-10-22T10:25:34.403Z,51.70
2022-10-22T10:28:16.450Z,51.50
2022-10-22T10:31:17.892Z,50.80
2022-10-22T10:34:09.058Z,51.40
2022-10-22T10:37:11.081Z,52.10
2022-10-22T10:39:46.006Z,52.90
2022-10-22T10:42:19.198Z,52.80
2022-10-22T10:45:04.299Z,51.80
2022-10-22T10:47:45.364Z,51.90
2022-10-22T10:50:21.277Z,50.50
2022-10-22T10:53:19.583Z,50.60
2022-10-22T10:56:08.168Z,49.10
2022-10-22T10:59:01.631Z,49.40
2022-10-22T11:01:39.279Z,50.40
2022-10-22T11:04:08.928Z,50.30
2022-10-22T11:06:35.991Z,50.40
2022-10-22T11:09:12.891Z,50.70
2022-10-22T11:12:02.711Z,51.60
2022-10-22T11:14:47.320Z,52.50
2022-10-22T11:17:15.187Z,50.10
2022-10-22T11:20:01.517Z,50.30
2022-10-22T11:22:50.495Z,50.80
2022-10-22T11:25:53.788Z,51.80
2022-10-22T11:28:32.585Z,52.70
2022-10-22T11:31:04.351Z,52.30
2022-10-22T11:33:37.747Z,53.70
2022-10-22T11:36:05.066Z,54.20
2022-10-22T11:38:35.075Z,54.60
2022-10-22T11:41:05.753Z,55.20
2022-10-22T11:43:33.461Z,55.80
2022-10-22T11:46:08.682Z,55.60
2022-10-22T11:48:37.619Z,55.30
2022-10-22T11:51:04.779Z,55.00
2022-10-22T11:53:32.485Z,55.80
2022-10-22T11:56:10.018Z,56.30
2022-10-22T11:58:42.174Z,56.50
2022-10-22T12:01:08.990Z,56.50
2022-10-22T12:03:45.081Z,56.40
2022-10-22T12:06:19.847Z,52.50
2022-10-22T12:08:49.583Z,53.00
2022-10-22T12:11:19.432Z,50.40
2022-10-22T12:14:02.082Z,52.60
2022-10-22T12:16:55.330Z,51.10
2022-10-22T12:19:23.303Z,50.50
2022-10-22T12:21:55.130Z,49.10
2022-10-22T12:24:23.381Z,48.20
2022-10-22T12:26:52.733Z,48.20
2022-10-22T12:29:22.813Z,48.00
2022-10-22T12:31:49.703Z,47.80
2022-10-22T12:34:18.563Z,47.60
2022-10-22T12:36:46.649Z,47.70
2022-10-22T12:39:22.412Z,47.80
2022-10-22T12:41:49.283Z,46.90
2022-10-22T12:44:17.472Z,47.10
2022-10-22T12:46:45.594Z,47.60
2022-10-22T12:49:23.863Z,47.60
2022-10-22T12:51:50.746Z,47.60
2022-10-22T12:54:28.449Z,47.40
2022-10-22T12:56:55.768Z,47.30
2022-10-22T12:59:36.058Z,47.70
2022-10-22T13:02:04.902Z,48.00
2022-10-22T13:04:36.794Z,47.80
2022-10-22T13:07:16.963Z,47.90
2022-10-22T13:09:55.812Z,47.80
2022-10-22T13:12:35.377Z,47.70
2022-10-22T13:15:21.794Z,47.70
2022-10-22T13:17:50.007Z,47.90
2022-10-22T13:20:21.497Z,48.10
2022-10-22T13:23:02.899Z,48.60
2022-10-22T13:25:30.537Z,48.30
2022-10-22T13:27:58.105Z,48.20
2022-10-22T13:30:32.244Z,48.50
2022-10-22T13:33:02.898Z,48.50
2022-10-22T13:35:37.370Z,48.90
2022-10-22T13:38:11.474Z,49.90
2022-10-22T13:40:39.098Z,51.10
2022-10-22T13:43:05.905Z,52.40
2022-10-22T13:45:32.799Z,52.70
2022-10-22T13:47:59.621Z,53.20
2022-10-22T13:50:26.401Z,53.80
2022-10-22T13:52:54.473Z,54.10
2022-10-22T13:55:25.657Z,53.50
2022-10-22T13:58:19.474Z,54.10
2022-10-22T14:00:57.561Z,55.60
2022-10-22T14:03:27.259Z,55.20
2022-10-22T14:05:54.120Z,56.50
2022-10-22T14:08:21.461Z,57.20
2022-10-22T14:10:48.428Z,58.30
2022-10-22T14:13:16.862Z,58.50
2022-10-22T14:15:44.300Z,58.70
2022-10-22T14:18:12.836Z,59.30
2022-10-22T14:20:40.502Z,59.90
2022-10-22T14:23:18.928Z,60.10
2022-10-22T14:25:45.742Z,57.40
2022-10-22T14:28:12.651Z,57.50
2022-10-22T14:30:39.571Z,59.30
2022-10-22T14:33:17.324Z,59.10
2022-10-22T14:35:44.172Z,58.30
2022-10-22T14:38:11.086Z,57.90
2022-10-22T14:40:41.995Z,57.60
2022-10-22T14:43:14.640Z,56.80
2022-10-22T14:45:41.487Z,56.30
2022-10-22T14:48:08.598Z,56.00
2022-10-22T14:50:35.499Z,55.80
2022-10-22T14:53:02.332Z,54.50
2022-10-22T14:55:29.245Z,54.80
2022-10-22T14:57:56.066Z,55.70
2022-10-22T15:00:22.921Z,55.00
2022-10-22T15:02:49.752Z,55.80
2022-10-22T15:05:17.531Z,56.60
2022-10-22T15:07:45.053Z,57.60
2022-10-22T15:10:11.935Z,57.80
2022-10-22T15:12:38.781Z,56.70
2022-10-22T15:15:06.180Z,56.60
2022-10-22T15:17:33.077Z,56.00
2022-10-22T15:20:04.080Z,55.60
2022-10-22T15:22:32.077Z,56.20
2022-10-22T15:24:58.952Z,56.80
2022-10-22T15:27:25.963Z,57.60
2022-10-22T15:29:52.885Z,58.20
2022-10-22T15:32:19.806Z,58.70
2022-10-22T15:34:46.632Z,59.40
2022-10-22T15:37:14.095Z,59.80
2022-10-22T15:39:41.757Z,60.90
2022-10-22T15:42:09.622Z,61.10
2022-10-22T15:44:36.734Z,61.20
2022-10-22T15:47:04.136Z,61.80
2022-10-22T15:49:30.998Z,62.70
2022-10-22T15:51:57.823Z,62.80
2022-10-22T15:54:26.462Z,63.00
2022-10-22T15:56:53.298Z,62.40
2022-10-22T15:59:20.134Z,62.50
2022-10-22T16:01:47.121Z,62.70
2022-10-22T16:04:13.964Z,63.60
2022-10-22T16:06:43.733Z,63.70
2022-10-22T16:09:12.587Z,64.00
2022-10-22T16:11:39.673Z,64.60
2022-10-22T16:14:06.677Z,64.70
2022-10-22T16:16:35.432Z,65.20
2022-10-22T16:19:02.294Z,65.40
2022-10-22T16:21:29.190Z,65.40
2022-10-22T16:23:56.025Z,65.60
2022-10-22T16:26:22.970Z,65.80
2022-10-22T16:28:49.837Z,66.40
2022-10-22T16:31:17.529Z,66.60
2022-10-22T16:33:47.748Z,67.20
2022-10-22T16:36:18.050Z,67.70
2022-10-22T16:38:45.778Z,67.80
2022-10-22T16:41:35.475Z,68.20
2022-10-22T16:44:04.715Z,68.40
2022-10-22T16:46:31.711Z,68.30
2022-10-22T16:48:58.607Z,68.50
2022-10-22T16:51:26.354Z,68.60
2022-10-22T16:53:53.356Z,69.70
2022-10-22T16:56:20.564Z,69.90
2022-10-22T16:58:49.548Z,70.20
2022-10-22T17:01:18.068Z,70.50
2022-10-22T17:03:45.311Z,70.80
2022-10-22T17:06:12.229Z,71.10
2022-10-22T17:08:39.186Z,71.30
2022-10-22T17:11:13.124Z,71.40
2022-10-22T17:13:42.956Z,71.90
2022-10-22T17:16:11.732Z,72.00
2022-10-22T17:18:39.655Z,71.80
2022-10-22T17:21:07.354Z,71.40
2022-10-22T17:23:34.228Z,71.00
2022-10-22T17:26:06.653Z,70.80
2022-10-22T17:28:33.741Z,70.70
2022-10-22T17:31:20.220Z,70.30
2022-10-22T17:33:47.278Z,69.80
2022-10-22T17:36:14.157Z,70.60
2022-10-22T17:38:41.365Z,70.40
2022-10-22T17:41:11.424Z,70.50
2022-10-22T17:43:41.376Z,70.00
2022-10-22T17:46:10.855Z,69.00
2022-10-22T17:48:37.738Z,68.70
2022-10-22T17:51:11.549Z,68.30
2022-10-22T17:53:41.559Z,67.90
2022-10-22T17:56:10.276Z,67.10
2022-10-22T17:58:37.393Z,67.40
2022-10-22T18:01:04.432Z,68.30
2022-10-22T18:03:31.332Z,69.40
2022-10-22T18:06:07.428Z,71.30
2022-10-22T18:08:34.344Z,73.30
2022-10-22T18:11:01.383Z,76.90
2022-10-22T18:13:28.380Z,79.30
2022-10-22T18:15:56.060Z,80.80
2022-10-22T18:18:25.951Z,82.70
2022-10-22T18:20:52.955Z,84.80
2022-10-22T18:23:19.939Z,88.00
2022-10-22T18:25:48.795Z,90.50
2022-10-22T18:28:16.426Z,92.00
2022-10-22T18:30:43.744Z,94.30
2022-10-22T18:33:12.123Z,97.10
2022-10-22T18:35:41.274Z,99.40
2022-10-22T18:38:09.100Z,99.90
2022-10-22T18:40:36.233Z,99.90
2022-10-22T18:43:03.539Z,99.90
2022-10-22T18:45:30.383Z,99.90
2022-10-22T18:47:58.886Z,99.90
2022-10-22T18:50:25.809Z,99.90
2022-10-22T18:52:52.659Z,99.90
2022-10-22T18:55:19.479Z,99.90
2022-10-22T18:57:46.308Z,99.90
2022-10-22T19:00:13.992Z,99.90
2022-10-22T19:02:41.145Z,99.90
2022-10-22T19:05:08.595Z,99.90
2022-10-22T19:07:36.617Z,99.90
2022-10-22T19:10:04.096Z,99.90
2022-10-22T19:12:30.912Z,99.90
2022-10-22T19:14:57.832Z,99.90
2022-10-22T19:17:25.120Z,99.90
2022-10-22T19:19:51.981Z,99.90
2022-10-22T19:22:19.022Z,99.90
2022-10-22T19:24:47.151Z,99.90
2022-10-22T19:27:13.978Z,99.90
2022-10-22T19:29:40.809Z,99.90
2022-10-22T19:34:41.215Z,99.90
2022-10-22T19:37:08.457Z,99.90
2022-10-22T19:39:35.396Z,99.90
2022-10-22T19:42:04.229Z,99.90
2022-10-22T19:44:31.072Z,99.90
2022-10-22T19:46:57.905Z,99.90
2022-10-22T19:49:24.747Z,99.90
2022-10-22T19:51:51.598Z,99.90
2022-10-22T19:54:19.669Z,99.90
2022-10-22T19:56:46.789Z,99.90
2022-10-22T19:59:15.188Z,99.90
2022-10-22T20:01:42.263Z,99.90
2022-10-22T20:04:11.963Z,99.90
2022-10-22T20:06:39.332Z,99.90
2022-10-22T20:09:06.573Z,99.90
2022-10-22T20:11:33.398Z,99.90
2022-10-22T20:14:00.256Z,99.90
2022-10-22T20:16:29.903Z,99.90
2022-10-22T20:19:01.390Z,99.90
2022-10-22T20:21:28.278Z,99.90
2022-10-22T20:23:56.479Z,99.90
2022-10-22T20:26:24.547Z,99.90
2022-10-22T20:28:52.049Z,99.90
2022-10-22T20:31:19.980Z,99.90
2022-10-22T20:33:47.765Z,99.90
2022-10-22T20:36:17.574Z,99.90
2022-10-22T20:38:45.499Z,99.90
2022-10-22T20:41:14.042Z,99.90
2022-10-22T20:43:42.911Z,99.90
2022-10-22T20:46:16.910Z,99.90
2022-10-22T20:48:43.720Z,99.90
2022-10-22T20:51:10.555Z,99.90
2022-10-22T20:53:37.359Z,99.90
2022-10-22T20:56:04.411Z,99.90
2022-10-22T20:58:31.337Z,99.90
2022-10-22T21:00:58.330Z,99.90
2022-10-22T21:03:25.181Z,99.90
2022-10-22T21:05:52.049Z,99.90
2022-10-22T21:08:18.870Z,99.90
2022-10-22T21:10:49.300Z,99.90
2022-10-22T21:13:16.653Z,99.90
2022-10-22T21:15:43.489Z,99.90
2022-10-22T21:18:10.334Z,99.90
2022-10-22T21:20:39.191Z,99.90
2022-10-22T21:23:06.956Z,99.90
2022-10-22T21:25:33.940Z,99.90
2022-10-22T21:28:00.769Z,99.90
2022-10-22T21:30:27.660Z,99.90
2022-10-22T21:32:56.844Z,99.90
2022-10-22T21:35:24.219Z,99.90
2022-10-22T21:37:51.083Z,99.90
2022-10-22T21:40:17.921Z,99.90
2022-10-22T21:42:44.866Z,99.90
2022-10-22T21:45:13.613Z,99.90
2022-10-22T21:47:41.918Z,99.90
2022-10-22T21:50:09.344Z,99.90
2022-10-22T21:52:36.238Z,99.90
2022-10-22T21:55:03.068Z,99.90
2022-10-22T21:57:29.859Z,99.90
2022-10-22T21:59:56.876Z,99.90
2022-10-22T22:02:24.130Z,99.90
2022-10-22T22:04:54.852Z,99.90
2022-10-22T22:07:22.086Z,99.90
2022-10-22T22:09:52.114Z,99.90
2022-10-22T22:12:21.159Z,99.90
2022-10-22T22:14:47.952Z,99.90
2022-10-22T22:17:16.587Z,99.90
2022-10-22T22:19:43.434Z,99.90
2022-10-22T22:22:10.321Z,99.90
2022-10-22T22:24:38.320Z,99.90
2022-10-22T22:27:05.212Z,99.90
2022-10-22T22:29:32.027Z,99.90
2022-10-22T22:31:58.866Z,99.90
2022-10-22T22:34:25.667Z,99.90
2022-10-22T22:36:52.727Z,99.90
2022-10-22T22:39:21.063Z,99.90
2022-10-22T22:41:48.049Z,99.90
2022-10-22T22:44:15.047Z,99.90
2022-10-22T22:46:41.960Z,99.90
2022-10-22T22:49:08.832Z,99.90
2022-10-22T22:51:35.815Z,99.90
2022-10-22T22:54:02.699Z,99.90
2022-10-22T22:56:30.776Z,99.90
2022-10-22T22:58:57.827Z,99.90
2022-10-22T23:01:29.303Z,99.90
2022-10-22T23:04:12.090Z,99.90
2022-10-22T23:06:38.998Z,99.90
2022-10-22T23:09:06.884Z,99.90
2022-10-22T23:11:33.896Z,99.90
2022-10-22T23:14:03.506Z,99.90
2022-10-22T23:16:32.220Z,99.90
2022-10-22T23:18:59.747Z,99.90
2022-10-22T23:21:33.959Z,99.90
2022-10-22T23:24:02.252Z,99.90
2022-10-22T23:26:34.181Z,99.90
2022-10-22T23:29:05.469Z,99.90
2022-10-22T23:31:32.274Z,99.90
2022-10-22T23:33:59.230Z,99.90
2022-10-22T23:36:26.167Z,99.90
2022-10-22T23:38:52.975Z,99.90
2022-10-22T23:41:19.799Z,99.90
2022-10-22T23:43:46.611Z,99.90
2022-10-22T23:46:13.517Z,99.90
2022-10-22T23:48:40.807Z,99.90
2022-10-22T23:51:14.376Z,99.90
2022-10-22T23:53:41.397Z,99.90
2022-10-22T23:56:09.946Z,99.90
2022-10-22T23:58:36.880Z,99.90
